Big Creek, California
Current Conditions -  °F | °C
As of 5:35 PM on Wednesday 26 Nov 2014 (Local Time) from KMMH Reporting Station
Clear Clear  
Wind Chill: 45°   Ceiling: Unl
Heat Index: 45°   Visibility: 10mi
Dew Point:   Wind: 0mph
Humidity: 23%   Direction: NA
Pressure: 30.47"   Gusts: NA
Location:  37.2°N, 119.24°W
Report Text: KMMH 270135Z AUTO 00000KT 10SM CLR 07/M13 A3047 RMK AO1
Loading
Personal Weather Stations






























Interactive Weather Map New forecast layout! Learn more

10-Day Weather Forecast

Advertisements
Track Severe Weather on mobile